createdAt,value
2022-08-09T00:01:54.798Z,16.59
2022-08-09T00:04:34.992Z,16.58
2022-08-09T00:07:02.663Z,16.55
2022-08-09T00:09:29.325Z,16.52
2022-08-09T00:12:03.608Z,16.50
2022-08-09T00:14:38.055Z,16.46
2022-08-09T00:17:05.369Z,16.45
2022-08-09T00:19:31.927Z,16.42
2022-08-09T00:22:03.667Z,16.40
2022-08-09T00:24:32.080Z,16.35
2022-08-09T00:27:05.090Z,16.31
2022-08-09T00:30:10.447Z,16.27
2022-08-09T00:32:26.743Z,16.23
2022-08-09T00:34:53.955Z,16.20
2022-08-09T00:37:20.533Z,16.16
2022-08-09T00:40:13.770Z,16.13
2022-08-09T00:44:10.585Z,16.08
2022-08-09T00:45:20.346Z,16.06
2022-08-09T00:47:47.575Z,16.10
2022-08-09T00:50:15.178Z,16.11
2022-08-09T00:52:42.175Z,16.10
2022-08-09T00:55:16.688Z,16.08
2022-08-09T00:57:59.203Z,16.06
2022-08-09T01:00:26.715Z,16.04
2022-08-09T01:03:13.701Z,15.99
2022-08-09T01:05:57.553Z,15.98
2022-08-09T01:08:40.582Z,15.92
2022-08-09T01:11:34.434Z,15.89
2022-08-09T01:17:12.577Z,15.87
2022-08-09T01:20:04.326Z,15.87
2022-08-09T01:22:38.144Z,15.82
2022-08-09T01:25:37.511Z,15.81
2022-08-09T01:28:09.827Z,15.77
2022-08-09T01:30:52.246Z,15.77
2022-08-09T01:33:22.859Z,15.75
2022-08-09T01:36:07.674Z,15.74
2022-08-09T01:38:41.552Z,15.73
2022-08-09T01:41:26.106Z,15.71
2022-08-09T01:43:56.034Z,15.70
2022-08-09T01:49:18.677Z,15.68
2022-08-09T01:52:07.054Z,15.68
2022-08-09T01:54:50.972Z,15.70
2022-08-09T01:57:20.663Z,15.68
2022-08-09T01:59:52.356Z,15.64
2022-08-09T02:02:30.999Z,15.64
2022-08-09T02:05:05.282Z,15.61
2022-08-09T02:08:41.054Z,15.58
2022-08-09T02:10:29.745Z,15.55
2022-08-09T02:12:58.574Z,15.55
2022-08-09T02:15:26.995Z,15.52
2022-08-09T02:18:14.340Z,15.49
2022-08-09T02:20:48.834Z,15.43
2022-08-09T02:23:22.119Z,15.39
2022-08-09T02:25:55.602Z,15.35
2022-08-09T02:28:29.414Z,15.32
2022-08-09T02:31:03.144Z,15.30
2022-08-09T02:33:58.444Z,15.27
2022-08-09T02:36:29.940Z,15.23
2022-08-09T02:39:01.226Z,15.20
2022-08-09T02:41:37.170Z,15.18
2022-08-09T02:44:13.596Z,15.15
2022-08-09T02:46:55.774Z,15.13
2022-08-09T02:49:27.141Z,15.11
2022-08-09T02:52:06.453Z,15.10
2022-08-09T02:54:35.679Z,15.07
2022-08-09T02:57:23.483Z,15.05
2022-08-09T03:00:11.377Z,15.03
2022-08-09T03:02:40.073Z,15.00
2022-08-09T03:07:55.450Z,14.94
2022-08-09T03:10:23.205Z,14.96
2022-08-09T03:12:52.114Z,14.96
2022-08-09T03:15:20.767Z,14.94
2022-08-09T03:17:57.774Z,14.93
2022-08-09T03:20:29.568Z,14.91
2022-08-09T03:23:00.286Z,14.90
2022-08-09T03:25:58.240Z,14.87
2022-08-09T03:28:30.541Z,14.86
2022-08-09T03:30:58.075Z,14.86
2022-08-09T03:33:26.949Z,14.86
2022-08-09T03:36:16.836Z,14.88
2022-08-09T03:38:44.611Z,14.89
2022-08-09T03:41:15.577Z,14.90
2022-08-09T03:43:43.427Z,14.94
2022-08-09T03:46:30.442Z,14.97
2022-08-09T03:49:04.060Z,14.96
2022-08-09T03:51:43.866Z,15.01
2022-08-09T03:54:29.414Z,15.07
2022-08-09T03:56:57.940Z,15.06
2022-08-09T03:59:27.183Z,15.05
2022-08-09T04:01:56.578Z,15.04
2022-08-09T04:04:27.140Z,15.04
2022-08-09T04:07:03.980Z,15.05
2022-08-09T04:09:41.945Z,15.00
2022-08-09T04:12:30.956Z,15.03
2022-08-09T04:15:00.637Z,14.98
2022-08-09T04:17:29.384Z,14.93
2022-08-09T04:19:56.812Z,15.00
2022-08-09T04:22:23.746Z,14.98
2022-08-09T04:24:50.779Z,14.94
2022-08-09T04:27:22.142Z,14.91
2022-08-09T04:29:50.275Z,14.90
2022-08-09T04:32:31.341Z,14.89
2022-08-09T04:35:01.646Z,14.99
2022-08-09T04:37:42.168Z,14.96
2022-08-09T04:40:18.969Z,15.00
2022-08-09T04:42:55.741Z,15.07
2022-08-09T04:45:23.707Z,15.12
2022-08-09T04:48:00.984Z,15.10
2022-08-09T04:50:31.856Z,15.10
2022-08-09T04:53:02.294Z,15.16
2022-08-09T04:55:39.704Z,15.17
2022-08-09T04:58:15.679Z,15.21
2022-08-09T05:00:43.169Z,15.29
2022-08-09T05:03:40.480Z,15.33
2022-08-09T05:06:06.554Z,15.32
2022-08-09T05:08:35.649Z,15.32
2022-08-09T05:11:03.633Z,15.31
2022-08-09T05:13:34.254Z,15.31
2022-08-09T05:16:06.635Z,15.34
2022-08-09T05:18:37.771Z,15.36
2022-08-09T05:21:10.056Z,15.42
2022-08-09T05:23:55.291Z,15.42
2022-08-09T05:26:36.702Z,15.50
2022-08-09T05:29:17.499Z,15.54
2022-08-09T05:31:56.105Z,15.59
2022-08-09T05:34:30.773Z,15.65
2022-08-09T05:37:06.019Z,15.77
2022-08-09T05:39:43.200Z,15.88
2022-08-09T05:42:17.375Z,15.98
2022-08-09T05:44:50.836Z,16.05
2022-08-09T05:47:23.055Z,16.19
2022-08-09T05:50:25.101Z,16.18
2022-08-09T05:52:42.266Z,16.25
2022-08-09T05:55:21.128Z,16.31
2022-08-09T05:57:56.951Z,16.39
2022-08-09T06:00:26.636Z,16.49
2022-08-09T06:02:59.646Z,16.61
2022-08-09T06:05:31.255Z,16.70
2022-08-09T06:08:19.583Z,16.76
2022-08-09T06:10:51.752Z,16.86
2022-08-09T06:13:20.630Z,16.90
2022-08-09T06:15:51.745Z,16.98
2022-08-09T06:18:20.893Z,17.10
2022-08-09T06:20:54.847Z,17.21
2022-08-09T06:23:57.962Z,17.26
2022-08-09T06:26:20.570Z,17.31
2022-08-09T06:29:00.313Z,17.45
2022-08-09T06:31:40.553Z,17.65
2022-08-09T06:34:17.599Z,17.74
2022-08-09T06:36:44.957Z,17.80
2022-08-09T06:39:12.664Z,17.85
2022-08-09T06:42:07.884Z,17.96
2022-08-09T06:44:27.142Z,18.08
2022-08-09T06:46:55.254Z,18.14
2022-08-09T06:49:29.223Z,18.23
2022-08-09T06:52:10.624Z,18.29
2022-08-09T06:54:39.101Z,18.46
2022-08-09T06:57:08.479Z,18.63
2022-08-09T07:00:49.911Z,18.69
2022-08-09T07:02:22.091Z,18.80
2022-08-09T07:04:56.239Z,18.90
2022-08-09T07:07:58.825Z,18.96
2022-08-09T07:10:22.332Z,19.05
2022-08-09T07:12:57.459Z,19.14
2022-08-09T07:16:38.720Z,19.24
2022-08-09T07:18:11.386Z,19.33
2022-08-09T07:20:40.986Z,19.49
2022-08-09T07:23:18.858Z,19.49
2022-08-09T07:25:52.224Z,19.61
2022-08-09T07:28:29.090Z,19.58
2022-08-09T07:30:56.144Z,19.71
2022-08-09T07:33:23.167Z,19.91
2022-08-09T07:35:54.263Z,20.07
2022-08-09T07:38:23.189Z,20.25
2022-08-09T07:41:09.928Z,20.34
2022-08-09T07:43:41.022Z,20.28
2022-08-09T07:46:19.053Z,20.29
2022-08-09T07:48:46.677Z,20.30
2022-08-09T07:52:06.016Z,20.35
2022-08-09T07:54:12.279Z,20.36
2022-08-09T07:56:44.876Z,20.47
2022-08-09T07:59:33.719Z,20.61
2022-08-09T08:02:05.034Z,20.79
2022-08-09T08:04:33.001Z,20.83
2022-08-09T08:07:09.535Z,20.86
2022-08-09T08:09:55.287Z,21.01
2022-08-09T08:12:37.217Z,21.16
2022-08-09T08:15:16.684Z,21.23
2022-08-09T08:17:53.064Z,21.50
2022-08-09T08:20:28.530Z,21.70
2022-08-09T08:23:01.440Z,21.85
2022-08-09T08:25:44.617Z,21.85
2022-08-09T08:28:14.239Z,22.04
2022-08-09T08:30:41.936Z,22.29
2022-08-09T08:33:11.834Z,22.24
2022-08-09T08:35:58.244Z,22.01
2022-08-09T08:38:26.056Z,22.20
2022-08-09T08:40:55.949Z,22.40
2022-08-09T08:43:23.816Z,23.12
2022-08-09T08:46:03.770Z,23.94
2022-08-09T08:48:51.107Z,24.91
2022-08-09T08:51:18.764Z,25.79
2022-08-09T08:54:03.015Z,26.01
2022-08-09T08:56:34.193Z,25.80
2022-08-09T08:59:07.689Z,25.72
2022-08-09T09:01:51.958Z,25.99
2022-08-09T09:04:27.410Z,26.37
2022-08-09T09:06:58.179Z,26.35
2022-08-09T09:09:58.000Z,26.61
2022-08-09T09:12:19.331Z,27.03
2022-08-09T09:14:49.895Z,27.23
2022-08-09T09:17:18.663Z,26.76
2022-08-09T09:19:47.713Z,27.46
2022-08-09T09:22:17.356Z,27.48
2022-08-09T09:25:00.752Z,27.61
2022-08-09T09:28:06.804Z,28.23
2022-08-09T09:30:39.931Z,28.54
2022-08-09T09:33:15.887Z,29.14
2022-08-09T09:36:20.069Z,28.30
2022-08-09T09:38:56.830Z,28.67
2022-08-09T09:41:25.011Z,28.62
2022-08-09T09:44:12.148Z,29.22
2022-08-09T09:46:50.450Z,28.67
2022-08-09T09:49:32.026Z,28.85
2022-08-09T09:52:33.735Z,29.45
2022-08-09T09:55:16.141Z,28.84
2022-08-09T09:58:01.051Z,28.83
2022-08-09T10:00:31.405Z,28.94
2022-08-09T10:02:59.624Z,29.32
2022-08-09T10:05:26.781Z,29.33
2022-08-09T10:08:27.411Z,29.57
2022-08-09T10:10:51.790Z,29.02
2022-08-09T10:13:24.794Z,29.19
2022-08-09T10:16:55.556Z,29.67
2022-08-09T10:18:54.509Z,29.39
2022-08-09T10:21:22.676Z,28.58
2022-08-09T10:23:51.261Z,29.10
2022-08-09T10:26:21.823Z,29.09
2022-08-09T10:29:35.922Z,29.49
2022-08-09T10:32:35.631Z,29.84
2022-08-09T10:34:33.512Z,29.91
2022-08-09T10:37:02.329Z,30.08
2022-08-09T10:39:30.125Z,29.58
2022-08-09T10:42:08.359Z,29.66
2022-08-09T10:44:37.598Z,30.11
2022-08-09T10:48:12.865Z,30.08
2022-08-09T10:50:18.130Z,30.74
2022-08-09T10:53:10.417Z,30.56
2022-08-09T10:55:58.735Z,30.72
2022-08-09T10:58:33.669Z,30.72
2022-08-09T11:03:13.503Z,30.54
2022-08-09T11:04:19.961Z,31.42
2022-08-09T11:07:00.966Z,30.35
2022-08-09T11:09:47.499Z,30.52
2022-08-09T11:12:29.970Z,31.47
2022-08-09T11:14:57.355Z,31.16
2022-08-09T11:17:27.243Z,31.24
2022-08-09T11:20:18.012Z,30.88
2022-08-09T11:22:56.768Z,30.82
2022-08-09T11:25:36.230Z,31.26
2022-08-09T11:28:34.004Z,31.33
2022-08-09T11:31:04.212Z,31.10
2022-08-09T11:33:54.260Z,30.83
2022-08-09T11:36:35.358Z,30.99
2022-08-09T11:39:03.732Z,31.19
2022-08-09T11:41:37.621Z,32.09
2022-08-09T11:44:05.346Z,31.38
2022-08-09T11:46:52.992Z,31.43
2022-08-09T11:50:53.932Z,31.31
2022-08-09T11:53:58.951Z,31.63
2022-08-09T11:55:53.782Z,31.92
2022-08-09T11:58:32.984Z,31.13
2022-08-09T12:01:15.570Z,31.22
2022-08-09T12:04:00.807Z,31.74
2022-08-09T12:06:32.458Z,31.80
2022-08-09T12:09:04.453Z,31.52
2022-08-09T12:11:37.945Z,31.54
2022-08-09T12:14:36.776Z,31.77
2022-08-09T12:17:27.935Z,31.61
2022-08-09T12:19:59.736Z,31.23
2022-08-09T12:22:27.108Z,31.47
2022-08-09T12:25:17.282Z,32.31
2022-08-09T12:28:59.850Z,32.87
2022-08-09T12:30:35.824Z,32.68
2022-08-09T12:33:05.550Z,33.05
2022-08-09T12:35:40.951Z,32.87
2022-08-09T12:38:37.852Z,33.37
2022-08-09T12:41:05.509Z,35.50
2022-08-09T12:44:05.339Z,36.46
2022-08-09T12:46:22.218Z,36.75
2022-08-09T12:48:51.325Z,36.08
2022-08-09T12:51:52.524Z,35.85
2022-08-09T12:54:07.594Z,36.80
2022-08-09T12:56:50.947Z,37.15
2022-08-09T12:59:22.592Z,36.90
2022-08-09T13:01:58.736Z,36.88
2022-08-09T13:04:36.147Z,36.43
2022-08-09T13:07:16.897Z,36.77
2022-08-09T13:09:55.845Z,37.85
2022-08-09T13:12:28.347Z,38.09
2022-08-09T13:15:07.304Z,37.35
2022-08-09T13:18:03.839Z,37.03
2022-08-09T13:20:37.495Z,35.67
2022-08-09T13:24:06.275Z,36.53
2022-08-09T13:26:05.522Z,37.29
2022-08-09T13:28:34.351Z,37.64
2022-08-09T13:32:14.405Z,36.79
2022-08-09T13:33:57.351Z,37.26
2022-08-09T13:36:41.279Z,37.34
2022-08-09T13:41:50.637Z,36.03
2022-08-09T13:42:11.001Z,35.39
2022-08-09T13:44:42.727Z,35.41
2022-08-09T13:47:29.289Z,35.70
2022-08-09T13:50:12.568Z,35.81
2022-08-09T13:52:46.172Z,35.32
2022-08-09T13:55:15.418Z,36.23
2022-08-09T13:57:56.209Z,36.41
2022-08-09T14:00:27.385Z,36.32
2022-08-09T14:03:02.828Z,35.70
2022-08-09T14:05:58.605Z,35.91
2022-08-09T14:08:28.602Z,36.10
2022-08-09T14:10:57.032Z,36.62
2022-08-09T14:14:15.896Z,35.72
2022-08-09T14:16:14.642Z,35.60
2022-08-09T14:18:45.843Z,35.47
2022-08-09T14:21:20.395Z,36.22
2022-08-09T14:23:55.159Z,36.54
2022-08-09T14:26:32.143Z,36.40
2022-08-09T14:29:02.806Z,36.80
2022-08-09T14:31:49.645Z,36.94
2022-08-09T14:34:17.594Z,37.13
2022-08-09T14:36:55.397Z,37.03
2022-08-09T14:39:22.163Z,37.08
2022-08-09T14:42:08.813Z,37.55
2022-08-09T14:44:59.607Z,37.81
2022-08-09T14:47:42.891Z,37.32
2022-08-09T14:50:09.550Z,36.95
2022-08-09T14:52:38.099Z,37.35
2022-08-09T14:55:06.892Z,36.78
2022-08-09T14:57:43.233Z,37.05
2022-08-09T15:00:18.577Z,36.99
2022-08-09T15:02:47.730Z,36.88
2022-08-09T15:05:19.077Z,37.56
2022-08-09T15:07:54.699Z,37.78
2022-08-09T15:10:24.972Z,37.60
2022-08-09T15:12:53.547Z,37.81
2022-08-09T15:15:21.069Z,38.53
2022-08-09T15:17:52.263Z,38.15
2022-08-09T15:21:55.524Z,37.31
2022-08-09T15:24:01.170Z,37.75
2022-08-09T15:25:58.501Z,38.05
2022-08-09T15:28:27.821Z,38.42
2022-08-09T15:31:08.680Z,38.40
2022-08-09T15:34:18.326Z,38.36
2022-08-09T15:36:29.159Z,38.02
2022-08-09T15:39:00.458Z,37.45
2022-08-09T15:41:31.520Z,37.83
2022-08-09T15:44:01.732Z,38.17
2022-08-09T15:46:33.813Z,37.85
2022-08-09T15:49:23.102Z,38.40
2022-08-09T15:52:03.840Z,38.41
2022-08-09T15:54:46.134Z,37.94
2022-08-09T15:57:34.644Z,38.19
2022-08-09T16:00:24.308Z,38.27
2022-08-09T16:02:54.628Z,37.59
2022-08-09T16:05:23.435Z,37.59
2022-08-09T16:07:50.549Z,37.32
2022-08-09T16:10:56.006Z,38.26
2022-08-09T16:13:04.638Z,37.68
2022-08-09T16:16:04.363Z,37.93
2022-08-09T16:18:32.237Z,37.77
2022-08-09T16:20:59.212Z,37.68
2022-08-09T16:23:26.507Z,38.10
2022-08-09T16:26:01.004Z,38.08
2022-08-09T16:28:29.866Z,38.14
2022-08-09T16:30:58.907Z,37.85
2022-08-09T16:33:26.510Z,37.34
2022-08-09T16:35:58.122Z,37.41
2022-08-09T16:38:27.243Z,36.57
2022-08-09T16:40:53.973Z,37.28
2022-08-09T16:43:22.295Z,37.14
2022-08-09T16:45:53.755Z,37.19
2022-08-09T16:48:43.401Z,36.29
2022-08-09T16:51:14.229Z,36.89
2022-08-09T16:54:08.867Z,36.56
2022-08-09T16:56:30.959Z,36.77
2022-08-09T16:58:58.843Z,37.07
2022-08-09T17:01:26.190Z,37.02
2022-08-09T17:03:54.362Z,36.74
2022-08-09T17:06:31.490Z,35.16
2022-08-09T17:09:17.673Z,34.04
2022-08-09T17:11:48.206Z,34.11
2022-08-09T17:14:28.062Z,32.78
2022-08-09T17:17:01.976Z,32.54
2022-08-09T17:19:47.558Z,32.23
2022-08-09T17:22:23.658Z,32.78
2022-08-09T17:24:55.755Z,32.96
2022-08-09T17:27:29.832Z,32.75
2022-08-09T17:29:56.433Z,32.52
2022-08-09T17:32:26.483Z,31.99
2022-08-09T17:35:10.828Z,31.93
2022-08-09T17:38:10.264Z,32.13
2022-08-09T17:40:26.444Z,31.72
2022-08-09T17:42:59.541Z,32.08
2022-08-09T17:46:01.851Z,31.52
2022-08-09T17:48:16.895Z,31.72
2022-08-09T17:50:48.473Z,31.96
2022-08-09T17:53:22.751Z,31.26
2022-08-09T17:55:54.132Z,30.29
2022-08-09T17:58:26.781Z,29.59
2022-08-09T18:00:56.517Z,28.60
2022-08-09T18:03:25.084Z,28.01
2022-08-09T18:05:52.967Z,27.17
2022-08-09T18:08:21.872Z,26.79
2022-08-09T18:11:00.942Z,26.34
2022-08-09T18:13:42.999Z,26.00
2022-08-09T18:16:16.977Z,25.78
2022-08-09T18:18:56.325Z,25.78
2022-08-09T18:21:24.409Z,25.46
2022-08-09T18:24:10.270Z,25.32
2022-08-09T18:26:46.494Z,25.16
2022-08-09T18:30:35.135Z,25.20
2022-08-09T18:32:01.022Z,25.17
2022-08-09T18:34:31.746Z,25.09
2022-08-09T18:36:58.839Z,24.96
2022-08-09T18:39:25.824Z,24.94
2022-08-09T18:42:08.720Z,24.94
2022-08-09T18:44:35.835Z,24.80
2022-08-09T18:47:08.155Z,24.76
2022-08-09T18:49:42.925Z,24.71
2022-08-09T18:52:11.543Z,24.59
2022-08-09T18:54:39.093Z,24.56
2022-08-09T18:57:08.882Z,24.41
2022-08-09T18:59:37.683Z,24.38
2022-08-09T19:02:18.602Z,24.34
2022-08-09T19:04:47.652Z,24.26
2022-08-09T19:07:32.019Z,24.09
2022-08-09T19:10:16.522Z,24.05
2022-08-09T19:12:50.980Z,23.89
2022-08-09T19:15:27.301Z,23.71
2022-08-09T19:17:58.269Z,23.72
2022-08-09T19:20:25.882Z,23.65
2022-08-09T19:22:54.460Z,23.58
2022-08-09T19:25:42.626Z,23.53
2022-08-09T19:28:13.498Z,23.41
2022-08-09T19:30:44.466Z,23.34
2022-08-09T19:33:17.953Z,23.28
2022-08-09T19:35:57.114Z,23.10
2022-08-09T19:38:24.426Z,23.13
2022-08-09T19:40:51.869Z,23.15
2022-08-09T19:43:57.739Z,23.06
2022-08-09T19:46:08.646Z,22.91
2022-08-09T19:49:01.759Z,22.92
2022-08-09T19:51:30.853Z,22.82
2022-08-09T19:54:01.105Z,22.72
2022-08-09T19:56:29.566Z,22.56
2022-08-09T19:59:18.174Z,22.51
2022-08-09T20:01:47.770Z,22.53
2022-08-09T20:04:37.446Z,22.53
2022-08-09T20:07:21.042Z,22.37
2022-08-09T20:09:48.108Z,22.39
2022-08-09T20:12:27.143Z,22.33
2022-08-09T20:15:04.723Z,22.23
2022-08-09T20:17:54.487Z,22.17
2022-08-09T20:20:21.646Z,22.14
2022-08-09T20:22:48.807Z,21.96
2022-08-09T20:25:22.705Z,21.86
2022-08-09T20:27:49.989Z,21.92
2022-08-09T20:30:18.074Z,21.77
2022-08-09T20:32:52.334Z,21.59
2022-08-09T20:35:20.494Z,21.61
2022-08-09T20:38:22.266Z,21.55
2022-08-09T20:40:35.210Z,21.45
2022-08-09T20:43:19.081Z,21.35
2022-08-09T20:45:58.643Z,21.35
2022-08-09T20:48:31.391Z,21.20
2022-08-09T20:50:59.587Z,21.20
2022-08-09T20:53:35.236Z,21.12
2022-08-09T20:56:20.363Z,21.05
2022-08-09T20:58:54.552Z,21.00
2022-08-09T21:01:35.398Z,21.01
2022-08-09T21:05:52.881Z,20.96
2022-08-09T21:07:11.385Z,20.86
2022-08-09T21:09:45.227Z,20.84
2022-08-09T21:14:48.414Z,20.71
2022-08-09T21:18:20.757Z,20.71
2022-08-09T21:20:22.635Z,20.67
2022-08-09T21:22:54.435Z,20.65
2022-08-09T21:25:44.420Z,20.53
2022-08-09T21:28:34.074Z,20.52
2022-08-09T21:31:16.597Z,20.43
2022-08-09T21:33:45.629Z,20.33
2022-08-09T21:36:17.699Z,20.32
2022-08-09T21:38:45.577Z,20.30
2022-08-09T21:41:17.693Z,20.28
2022-08-09T21:43:56.560Z,20.26
2022-08-09T21:46:24.522Z,20.22
2022-08-09T21:48:52.074Z,20.16
2022-08-09T21:51:23.900Z,20.13
2022-08-09T21:53:54.851Z,20.11
2022-08-09T21:56:33.808Z,20.10
2022-08-09T21:59:09.278Z,20.10
2022-08-09T22:04:16.873Z,19.96
2022-08-09T22:06:59.069Z,19.92
2022-08-09T22:09:28.720Z,19.96
2022-08-09T22:12:17.968Z,19.89
2022-08-09T22:14:42.517Z,19.82
2022-08-09T22:17:09.102Z,19.77
2022-08-09T22:19:58.324Z,19.70
2022-08-09T22:22:24.541Z,19.65
2022-08-09T22:26:04.214Z,19.58
2022-08-09T22:27:39.066Z,19.52
2022-08-09T22:30:07.737Z,19.48
2022-08-09T22:32:34.766Z,19.46
2022-08-09T22:35:06.801Z,19.41
2022-08-09T22:37:49.821Z,19.33
2022-08-09T22:40:34.317Z,19.31
2022-08-09T22:43:01.031Z,19.26
2022-08-09T22:48:14.951Z,19.24
2022-08-09T22:48:35.088Z,19.21
2022-08-09T22:51:10.453Z,19.13
2022-08-09T22:54:02.050Z,19.14
2022-08-09T22:56:34.000Z,19.12
2022-08-09T22:59:05.998Z,19.09
2022-08-09T23:01:48.861Z,19.00
2022-08-09T23:04:15.444Z,19.03
2022-08-09T23:07:02.390Z,18.97
2022-08-09T23:09:28.949Z,18.89
2022-08-09T23:11:55.629Z,18.88
2022-08-09T23:14:37.252Z,18.82
2022-08-09T23:17:08.206Z,18.80
2022-08-09T23:20:00.668Z,18.75
2022-08-09T23:22:21.313Z,18.69
2022-08-09T23:24:48.509Z,18.68
2022-08-09T23:27:15.723Z,18.64
2022-08-09T23:29:42.225Z,18.59
2022-08-09T23:32:08.776Z,18.58
2022-08-09T23:34:35.378Z,18.56
2022-08-09T23:37:01.887Z,18.46
2022-08-09T23:39:28.629Z,18.50
2022-08-09T23:41:55.189Z,18.39
2022-08-09T23:44:22.351Z,18.41
2022-08-09T23:46:57.209Z,18.34
2022-08-09T23:49:24.733Z,18.32
2022-08-09T23:51:52.048Z,18.28
2022-08-09T23:54:18.877Z,18.22
2022-08-09T23:56:54.778Z,18.20
2022-08-09T23:59:23.643Z,18.17
